Lanesville, Illinois
Current Conditions -  °F | °C
As of 6:52 PM on Thursday 27 Nov 2014 (Local Time) from KSPI Reporting Station
Clear Clear  
Wind Chill: -10°   Ceiling: Unl
Heat Index: -10°   Visibility: 10mi
Dew Point: -13°   Wind: 0mph
Humidity: 77%   Direction: NA
Pressure: 30.48"   Gusts: NA
Location:  39.8448°N, 89.3474°W
Report Text: KSPI 280052Z 00000KT 10SM CLR M10/M13 A3048 RMK AO2 SLP329 T11001133
Loading
Personal Weather Stations






























Interactive Weather Map New forecast layout! Learn more

10-Day Weather Forecast

Advertisements
Track Severe Weather on mobile